createdAt,value
2023-05-02T00:02:32.332Z,1.92
2023-05-02T00:05:35.823Z,2.03
2023-05-02T00:08:40.349Z,2.20
2023-05-02T00:11:43.149Z,2.15
2023-05-02T00:14:45.888Z,2.10
2023-05-02T00:17:48.697Z,2.28
2023-05-02T00:20:51.618Z,2.10
2023-05-02T00:23:56.941Z,2.10
2023-05-02T00:26:59.729Z,2.00
2023-05-02T00:30:03.140Z,2.13
2023-05-02T00:33:07.088Z,2.75
2023-05-02T00:36:15.182Z,2.28
2023-05-02T00:39:19.320Z,2.00
2023-05-02T00:42:22.179Z,1.98
2023-05-02T00:45:25.119Z,2.25
2023-05-02T00:48:28.069Z,2.35
2023-05-02T00:51:31.098Z,1.80
2023-05-02T00:54:35.277Z,1.70
2023-05-02T00:57:38.134Z,2.08
2023-05-02T01:01:02.277Z,2.10
2023-05-02T01:04:17.290Z,2.13
2023-05-02T01:07:35.914Z,2.00
2023-05-02T01:10:51.075Z,2.17
2023-05-02T01:13:55.855Z,1.90
2023-05-02T01:17:04.364Z,1.75
2023-05-02T01:20:11.100Z,2.08
2023-05-02T01:23:23.860Z,1.80
2023-05-02T01:26:36.343Z,2.00
2023-05-02T01:29:42.811Z,2.10
2023-05-02T01:32:48.311Z,1.77
2023-05-02T01:35:53.570Z,2.00
2023-05-02T01:38:57.935Z,2.08
2023-05-02T01:42:04.602Z,1.75
2023-05-02T01:45:11.460Z,2.30
2023-05-02T01:48:15.978Z,2.00
2023-05-02T01:51:21.741Z,2.10
2023-05-02T01:54:27.615Z,1.90
2023-05-02T01:57:30.613Z,1.95
2023-05-02T02:00:35.499Z,2.22
2023-05-02T02:03:38.578Z,1.88
2023-05-02T02:06:45.610Z,2.00
2023-05-02T02:09:48.587Z,1.90
2023-05-02T02:12:54.561Z,2.00
2023-05-02T02:16:02.983Z,2.05
2023-05-02T02:19:08.448Z,1.70
2023-05-02T02:22:15.220Z,1.85
2023-05-02T02:25:19.441Z,1.85
2023-05-02T02:28:23.083Z,1.75
2023-05-02T02:31:31.883Z,1.95
2023-05-02T02:34:34.833Z,2.30
2023-05-02T02:37:43.128Z,2.00
2023-05-02T02:40:48.840Z,1.75
2023-05-02T02:44:01.339Z,1.67
2023-05-02T02:47:12.649Z,1.83
2023-05-02T02:50:21.156Z,1.88
2023-05-02T02:53:28.658Z,1.98
2023-05-02T02:56:40.197Z,1.90
2023-05-02T02:59:50.779Z,1.58
2023-05-02T03:02:55.947Z,2.03
2023-05-02T03:05:59.148Z,1.95
2023-05-02T03:09:02.677Z,1.95
2023-05-02T03:12:06.512Z,1.80
2023-05-02T03:15:31.396Z,1.80
2023-05-02T03:18:37.030Z,2.13
2023-05-02T03:21:39.880Z,2.00
2023-05-02T03:24:48.937Z,1.90
2023-05-02T03:27:52.200Z,1.90
2023-05-02T03:30:55.259Z,2.03
2023-05-02T03:33:59.685Z,1.77
2023-05-02T03:37:02.535Z,1.70
2023-05-02T03:40:07.539Z,1.88
2023-05-02T03:43:11.499Z,2.00
2023-05-02T03:46:14.882Z,1.90
2023-05-02T03:49:21.852Z,2.10
2023-05-02T03:52:28.463Z,1.80
2023-05-02T03:55:31.277Z,1.77
2023-05-02T03:58:36.139Z,1.73
2023-05-02T04:01:39.549Z,1.95
2023-05-02T04:04:45.026Z,1.70
2023-05-02T04:07:51.130Z,1.83
2023-05-02T04:10:54.418Z,2.05
2023-05-02T04:13:57.757Z,1.77
2023-05-02T04:17:00.727Z,2.40
2023-05-02T04:20:16.353Z,1.85
2023-05-02T04:23:23.962Z,2.13
2023-05-02T04:26:31.711Z,2.00
2023-05-02T04:29:40.967Z,2.22
2023-05-02T04:32:45.235Z,1.98
2023-05-02T04:35:49.849Z,2.20
2023-05-02T04:38:53.961Z,2.00
2023-05-02T04:41:56.887Z,2.13
2023-05-02T04:45:02.128Z,1.98
2023-05-02T04:48:05.899Z,1.85
2023-05-02T04:51:10.376Z,2.35
2023-05-02T04:54:13.378Z,2.03
2023-05-02T04:57:18.347Z,1.67
2023-05-02T05:00:26.024Z,2.28
2023-05-02T05:03:30.000Z,2.15
2023-05-02T05:06:35.986Z,1.73
2023-05-02T05:09:40.366Z,1.77
2023-05-02T05:12:43.198Z,1.95
2023-05-02T05:15:47.086Z,1.95
2023-05-02T05:18:53.791Z,2.10
2023-05-02T05:21:57.953Z,2.00
2023-05-02T05:25:00.782Z,1.80
2023-05-02T05:28:06.644Z,1.75
2023-05-02T05:31:16.814Z,1.92
2023-05-02T05:34:22.900Z,1.92
2023-05-02T05:40:33.435Z,1.90
2023-05-02T05:43:38.096Z,1.90
2023-05-02T05:46:42.100Z,2.22
2023-05-02T05:49:47.120Z,1.70
2023-05-02T05:52:51.436Z,1.80
2023-05-02T05:55:54.696Z,1.92
2023-05-02T05:58:57.437Z,1.92
2023-05-02T06:02:00.349Z,1.98
2023-05-02T06:05:03.406Z,1.75
2023-05-02T06:08:08.061Z,1.88
2023-05-02T06:11:11.791Z,1.90
2023-05-02T06:14:14.658Z,1.90
2023-05-02T06:17:17.851Z,1.98
2023-05-02T06:20:20.713Z,1.63
2023-05-02T06:23:25.792Z,1.80
2023-05-02T06:26:28.571Z,1.75
2023-05-02T06:29:31.354Z,1.70
2023-05-02T06:32:34.221Z,1.70
2023-05-02T06:35:37.348Z,1.67
2023-05-02T06:38:41.520Z,1.73
2023-05-02T06:41:44.285Z,1.90
2023-05-02T06:44:52.562Z,1.65
2023-05-02T06:47:55.401Z,1.70
2023-05-02T06:50:58.225Z,1.90
2023-05-02T06:54:02.296Z,2.10
2023-05-02T06:57:05.119Z,1.80
2023-05-02T07:00:09.194Z,2.00
2023-05-02T07:03:12.651Z,1.77
2023-05-02T07:06:15.574Z,1.90
2023-05-02T07:09:19.757Z,1.80
2023-05-02T07:12:22.508Z,1.90
2023-05-02T07:15:25.229Z,1.80
2023-05-02T07:18:28.032Z,1.98
2023-05-02T07:21:30.864Z,1.52
2023-05-02T07:24:34.972Z,1.77
2023-05-02T07:27:37.898Z,1.80
2023-05-02T07:30:40.774Z,1.77
2023-05-02T07:33:43.522Z,1.88
2023-05-02T07:36:46.298Z,1.85
2023-05-02T07:39:50.433Z,1.75
2023-05-02T07:42:53.185Z,1.90
2023-05-02T07:45:56.253Z,1.67
2023-05-02T07:48:59.108Z,1.85
2023-05-02T07:52:01.828Z,1.70
2023-05-02T07:55:06.695Z,1.70
2023-05-02T07:58:09.466Z,2.15
2023-05-02T08:01:12.297Z,1.95
2023-05-02T08:04:15.299Z,1.67
2023-05-02T08:07:18.387Z,1.70
2023-05-02T08:10:24.256Z,1.60
2023-05-02T08:13:27.224Z,1.70
2023-05-02T08:16:30.075Z,1.70
2023-05-02T08:19:33.027Z,1.70
2023-05-02T08:22:35.812Z,1.85
2023-05-02T08:25:40.157Z,1.50
2023-05-02T08:28:42.932Z,1.63
2023-05-02T08:31:45.762Z,1.60
2023-05-02T08:34:48.598Z,1.80
2023-05-02T08:37:51.394Z,1.90
2023-05-02T08:40:55.562Z,1.67
2023-05-02T08:43:58.910Z,1.60
2023-05-02T08:47:03.057Z,1.52
2023-05-02T08:50:07.839Z,1.38
2023-05-02T08:53:11.569Z,1.77
2023-05-02T08:56:15.730Z,1.60
2023-05-02T08:59:18.731Z,1.58
2023-05-02T09:02:36.391Z,1.60
2023-05-02T09:05:42.718Z,1.80
2023-05-02T09:08:48.729Z,1.90
2023-05-02T09:11:53.506Z,1.70
2023-05-02T09:15:10.796Z,2.47
2023-05-02T09:18:21.095Z,1.80
2023-05-02T09:21:25.555Z,1.90
2023-05-02T09:24:28.795Z,1.75
2023-05-02T09:27:51.373Z,1.52
2023-05-02T09:31:08.032Z,1.45
2023-05-02T09:34:13.044Z,1.60
2023-05-02T09:37:35.898Z,1.77
2023-05-02T09:40:39.012Z,1.60
2023-05-02T09:43:43.447Z,1.63
2023-05-02T09:46:47.980Z,1.85
2023-05-02T09:49:50.797Z,1.70
2023-05-02T09:53:02.655Z,1.60
2023-05-02T09:56:06.449Z,1.60
2023-05-02T09:59:17.663Z,1.95
2023-05-02T10:02:21.873Z,1.55
2023-05-02T10:05:25.738Z,1.70
2023-05-02T10:08:29.572Z,2.05
2023-05-02T10:11:34.646Z,1.50
2023-05-02T10:14:41.655Z,1.58
2023-05-02T10:17:50.603Z,1.80
2023-05-02T10:20:58.138Z,1.75
2023-05-02T10:24:03.985Z,1.70
2023-05-02T10:27:07.405Z,1.52
2023-05-02T10:30:15.083Z,1.50
2023-05-02T10:33:19.399Z,1.75
2023-05-02T10:36:23.716Z,1.70
2023-05-02T10:39:26.756Z,1.63
2023-05-02T10:42:31.222Z,2.65
2023-05-02T10:45:36.474Z,2.10
2023-05-02T10:48:39.235Z,1.90
2023-05-02T10:51:44.288Z,1.90
2023-05-02T10:54:47.080Z,1.98
2023-05-02T10:58:24.351Z,2.10
2023-05-02T11:01:42.097Z,2.30
2023-05-02T11:05:02.535Z,3.20
2023-05-02T11:08:31.532Z,3.60
2023-05-02T11:11:41.865Z,4.32
2023-05-02T11:14:52.498Z,4.03
2023-05-02T11:18:04.093Z,4.25
2023-05-02T11:21:27.526Z,4.10
2023-05-02T11:24:40.785Z,4.00
2023-05-02T11:27:45.620Z,3.88
2023-05-02T11:30:50.930Z,3.75
2023-05-02T11:33:58.980Z,3.75
2023-05-02T11:37:02.072Z,3.90
2023-05-02T11:40:15.203Z,3.63
2023-05-02T11:43:19.827Z,3.50
2023-05-02T11:46:23.052Z,3.60
2023-05-02T11:49:27.430Z,3.55
2023-05-02T11:52:30.745Z,3.05
2023-05-02T11:55:33.605Z,3.20
2023-05-02T11:58:36.338Z,3.67
2023-05-02T12:01:49.362Z,3.88
2023-05-02T12:04:53.514Z,3.42
2023-05-02T12:07:56.299Z,3.17
2023-05-02T12:10:59.007Z,3.60
2023-05-02T12:14:01.801Z,3.28
2023-05-02T12:17:05.283Z,3.00
2023-05-02T12:20:11.186Z,3.25
2023-05-02T12:23:14.455Z,3.67
2023-05-02T12:26:18.175Z,3.10
2023-05-02T12:29:20.958Z,2.97
2023-05-02T12:32:29.879Z,3.40
2023-05-02T12:35:34.871Z,2.30
2023-05-02T12:38:37.905Z,2.45
2023-05-02T12:41:43.674Z,3.20
2023-05-02T12:44:48.433Z,2.10
2023-05-02T12:47:51.220Z,2.35
2023-05-02T12:50:56.537Z,2.00
2023-05-02T12:53:59.592Z,2.53
2023-05-02T12:57:02.981Z,2.33
2023-05-02T13:00:07.593Z,2.72
2023-05-02T13:03:11.430Z,2.20
2023-05-02T13:06:15.615Z,2.20
2023-05-02T13:09:18.718Z,2.28
2023-05-02T13:12:21.522Z,2.20
2023-05-02T13:15:24.438Z,2.20
2023-05-02T13:18:28.123Z,2.40
2023-05-02T13:21:32.614Z,2.00
2023-05-02T13:24:35.551Z,2.13
2023-05-02T13:27:38.284Z,2.40
2023-05-02T13:30:41.259Z,2.35
2023-05-02T13:33:44.038Z,2.40
2023-05-02T13:36:48.380Z,3.00
2023-05-02T13:39:51.155Z,2.42
2023-05-02T13:42:53.962Z,2.90
2023-05-02T13:45:56.684Z,2.45
2023-05-02T13:48:59.467Z,2.60
2023-05-02T13:52:03.606Z,2.45
2023-05-02T13:55:08.166Z,3.08
2023-05-02T13:58:10.934Z,2.50
2023-05-02T14:01:13.751Z,2.85
2023-05-02T14:04:16.576Z,2.72
2023-05-02T14:07:20.687Z,2.55
2023-05-02T14:10:23.444Z,2.17
2023-05-02T14:13:26.226Z,2.67
2023-05-02T14:16:30.070Z,2.60
2023-05-02T14:19:33.041Z,2.58
2023-05-02T14:22:37.195Z,2.67
2023-05-02T14:25:40.086Z,2.65
2023-05-02T14:28:42.856Z,2.65
2023-05-02T14:31:46.058Z,2.83
2023-05-02T14:34:48.853Z,3.10
2023-05-02T14:37:53.012Z,3.45
2023-05-02T14:40:56.078Z,2.40
2023-05-02T14:43:58.934Z,3.13
2023-05-02T14:47:02.403Z,2.80
2023-05-02T14:50:06.347Z,2.97
2023-05-02T14:53:11.757Z,2.22
2023-05-02T14:56:17.191Z,2.38
2023-05-02T14:59:20.099Z,2.45
2023-05-02T15:02:23.104Z,2.60
2023-05-02T15:05:26.074Z,2.42
2023-05-02T15:08:30.148Z,2.80
2023-05-02T15:11:33.116Z,2.90
2023-05-02T15:14:36.050Z,2.53
2023-05-02T15:17:39.383Z,2.63
2023-05-02T15:20:42.487Z,3.05
2023-05-02T15:23:47.149Z,3.05
2023-05-02T15:26:49.938Z,2.60
2023-05-02T15:29:52.706Z,2.22
2023-05-02T15:32:55.616Z,2.92
2023-05-02T15:35:59.344Z,2.53
2023-05-02T15:39:03.464Z,2.58
2023-05-02T15:42:06.751Z,2.95
2023-05-02T15:45:13.892Z,2.70
2023-05-02T15:48:16.615Z,3.42
2023-05-02T15:51:19.616Z,3.28
2023-05-02T15:54:24.283Z,2.47
2023-05-02T15:57:27.107Z,2.47
2023-05-02T16:00:30.359Z,3.00
2023-05-02T16:03:34.267Z,2.33
2023-05-02T16:06:37.440Z,2.47
2023-05-02T16:09:42.463Z,2.65
2023-05-02T16:12:45.207Z,2.70
2023-05-02T16:15:48.874Z,2.53
2023-05-02T16:18:51.605Z,2.60
2023-05-02T16:21:54.299Z,2.97
2023-05-02T16:24:58.456Z,2.45
2023-05-02T16:28:01.298Z,2.33
2023-05-02T16:31:07.489Z,2.33
2023-05-02T16:34:10.343Z,2.20
2023-05-02T16:37:13.677Z,2.70
2023-05-02T16:40:18.000Z,2.08
2023-05-02T16:43:21.001Z,2.38
2023-05-02T16:46:23.965Z,2.05
2023-05-02T16:49:26.781Z,2.05
2023-05-02T16:52:29.736Z,2.00
2023-05-02T16:55:33.840Z,2.13
2023-05-02T16:58:36.582Z,2.15
2023-05-02T17:01:39.426Z,2.85
2023-05-02T17:04:42.409Z,2.28
2023-05-02T17:07:46.148Z,2.08
2023-05-02T17:10:51.497Z,1.83
2023-05-02T17:13:55.009Z,2.15
2023-05-02T17:16:57.820Z,2.17
2023-05-02T17:20:01.295Z,2.42
2023-05-02T17:23:04.316Z,2.28
2023-05-02T17:26:14.356Z,2.20
2023-05-02T17:29:17.300Z,2.40
2023-05-02T17:32:20.082Z,2.33
2023-05-02T17:35:23.074Z,2.15
2023-05-02T17:38:26.699Z,2.38
2023-05-02T17:41:30.918Z,2.17
2023-05-02T17:44:36.030Z,2.40
2023-05-02T17:47:38.916Z,1.98
2023-05-02T17:50:42.064Z,2.20
2023-05-02T17:53:44.821Z,2.17
2023-05-02T17:56:50.615Z,2.15
2023-05-02T17:59:56.598Z,2.78
2023-05-02T18:02:59.764Z,2.38
2023-05-02T18:06:02.803Z,1.73
2023-05-02T18:09:05.584Z,2.28
2023-05-02T18:12:15.743Z,2.35
2023-05-02T18:15:18.765Z,2.00
2023-05-02T18:18:22.332Z,1.85
2023-05-02T18:21:25.848Z,2.05
2023-05-02T18:24:29.264Z,2.08
2023-05-02T18:27:33.397Z,2.25
2023-05-02T18:30:37.318Z,2.00
2023-05-02T18:33:41.439Z,2.10
2023-05-02T18:36:45.060Z,2.17
2023-05-02T18:39:47.863Z,1.85
2023-05-02T18:42:52.084Z,2.13
2023-05-02T18:45:54.926Z,2.20
2023-05-02T18:48:57.900Z,2.00
2023-05-02T18:52:00.969Z,2.15
2023-05-02T18:55:05.034Z,2.50
2023-05-02T18:58:09.213Z,1.50
2023-05-02T19:01:14.799Z,1.92
2023-05-02T19:04:18.708Z,1.70
2023-05-02T19:07:21.466Z,2.00
2023-05-02T19:10:24.272Z,2.10
2023-05-02T19:13:29.543Z,1.98
2023-05-02T19:16:34.836Z,2.00
2023-05-02T19:19:37.694Z,2.00
2023-05-02T19:22:40.937Z,2.30
2023-05-02T19:25:43.761Z,2.13
2023-05-02T19:28:47.901Z,2.15
2023-05-02T19:31:51.046Z,2.40
2023-05-02T19:34:54.489Z,2.08
2023-05-02T19:37:57.511Z,2.38
2023-05-02T19:41:00.824Z,2.30
2023-05-02T19:44:05.073Z,2.40
2023-05-02T19:47:07.827Z,2.60
2023-05-02T19:50:11.300Z,2.38
2023-05-02T19:53:14.104Z,2.22
2023-05-02T19:56:16.820Z,2.63
2023-05-02T19:59:20.942Z,2.20
2023-05-02T20:02:23.796Z,2.30
2023-05-02T20:05:26.692Z,2.20
2023-05-02T20:08:31.398Z,2.45
2023-05-02T20:11:34.260Z,2.38
2023-05-02T20:14:39.834Z,2.33
2023-05-02T20:17:42.605Z,2.33
2023-05-02T20:20:45.642Z,2.10
2023-05-02T20:23:48.404Z,2.30
2023-05-02T20:26:51.156Z,2.17
2023-05-02T20:29:55.304Z,2.65
2023-05-02T20:33:10.541Z,2.70
2023-05-02T20:36:18.135Z,2.22
2023-05-02T20:39:21.907Z,2.42
2023-05-02T20:42:25.606Z,2.17
2023-05-02T20:45:29.838Z,2.33
2023-05-02T20:48:34.020Z,2.50
2023-05-02T20:51:36.888Z,2.03
2023-05-02T20:54:39.651Z,2.58
2023-05-02T20:57:42.404Z,2.10
2023-05-02T21:00:52.091Z,1.90
2023-05-02T21:03:56.957Z,2.55
2023-05-02T21:07:00.082Z,2.55
2023-05-02T21:10:02.973Z,2.22
2023-05-02T21:13:05.986Z,2.40
2023-05-02T21:16:16.958Z,2.60
2023-05-02T21:19:20.125Z,2.30
2023-05-02T21:22:22.958Z,2.13
2023-05-02T21:25:25.795Z,2.63
2023-05-02T21:28:29.077Z,1.83
2023-05-02T21:31:34.438Z,2.15
2023-05-02T21:34:37.323Z,2.08
2023-05-02T21:37:40.141Z,2.13
2023-05-02T21:40:42.889Z,2.10
2023-05-02T21:43:45.889Z,2.22
2023-05-02T21:46:50.563Z,2.30
2023-05-02T21:49:54.663Z,2.30
2023-05-02T21:52:57.429Z,2.25
2023-05-02T21:56:00.218Z,2.30
2023-05-02T21:59:02.966Z,2.45
2023-05-02T22:02:07.211Z,2.50
2023-05-02T22:05:11.422Z,2.13
2023-05-02T22:08:14.357Z,2.10
2023-05-02T22:11:18.051Z,2.25
2023-05-02T22:14:22.068Z,2.63
2023-05-02T22:17:28.355Z,1.90
2023-05-02T22:20:31.876Z,2.15
2023-05-02T22:23:34.854Z,2.17
2023-05-02T22:26:37.712Z,2.25
2023-05-02T22:29:40.433Z,2.30
2023-05-02T22:32:44.508Z,2.05
2023-05-02T22:35:47.386Z,2.05
2023-05-02T22:38:50.349Z,2.15
2023-05-02T22:41:53.061Z,2.05
2023-05-02T22:44:55.793Z,1.75
2023-05-02T22:48:00.195Z,2.00
2023-05-02T22:51:03.085Z,1.92
2023-05-02T22:54:06.008Z,1.90
2023-05-02T22:57:08.814Z,2.03
2023-05-02T23:00:13.094Z,1.88
2023-05-02T23:03:17.247Z,2.00
2023-05-02T23:06:20.204Z,2.00
2023-05-02T23:09:22.981Z,1.75
2023-05-02T23:12:25.708Z,1.83
2023-05-02T23:15:28.422Z,2.00
2023-05-02T23:18:32.698Z,1.77
2023-05-02T23:21:35.425Z,1.90
2023-05-02T23:24:38.233Z,1.83
2023-05-02T23:27:41.004Z,1.63
2023-05-02T23:30:43.832Z,1.73
2023-05-02T23:33:48.099Z,1.88
2023-05-02T23:36:53.247Z,1.88
2023-05-02T23:39:57.698Z,1.88
2023-05-02T23:43:01.178Z,1.83
2023-05-02T23:46:03.891Z,1.80
2023-05-02T23:49:08.022Z,1.80
2023-05-02T23:52:10.835Z,1.75
2023-05-02T23:55:13.577Z,2.03
2023-05-02T23:58:16.524Z,2.10
